sensor_id;sensor_type;location;lat;lon;timestamp;P1;durP1;ratioP1;P2;durP2;ratioP2
74371;SDS011;62885;51.374;6.170;2023-02-28T00:01:26;7.40;;;2.78;;
74371;SDS011;62885;51.374;6.170;2023-02-28T00:03:51;5.55;;;2.53;;
74371;SDS011;62885;51.374;6.170;2023-02-28T00:06:17;5.80;;;2.63;;
74371;SDS011;62885;51.374;6.170;2023-02-28T00:08:42;5.80;;;2.60;;
74371;SDS011;62885;51.374;6.170;2023-02-28T00:11:09;8.38;;;3.05;;
74371;SDS011;62885;51.374;6.170;2023-02-28T00:13:37;5.30;;;2.25;;
74371;SDS011;62885;51.374;6.170;2023-02-28T00:16:11;6.72;;;2.50;;
74371;SDS011;62885;51.374;6.170;2023-02-28T00:18:38;6.18;;;2.40;;
74371;SDS011;62885;51.374;6.170;2023-02-28T00:21:05;5.97;;;2.55;;
74371;SDS011;62885;51.374;6.170;2023-02-28T00:23:30;6.00;;;2.75;;
74371;SDS011;62885;51.374;6.170;2023-02-28T00:25:56;5.90;;;2.92;;
74371;SDS011;62885;51.374;6.170;2023-02-28T00:28:21;5.07;;;2.30;;
74371;SDS011;62885;51.374;6.170;2023-02-28T00:30:47;6.38;;;2.67;;
74371;SDS011;62885;51.374;6.170;2023-02-28T00:33:12;7.90;;;2.83;;
74371;SDS011;62885;51.374;6.170;2023-02-28T00:35:38;5.60;;;2.65;;
74371;SDS011;62885;51.374;6.170;2023-02-28T00:38:03;8.23;;;2.85;;
74371;SDS011;62885;51.374;6.170;2023-02-28T00:40:29;5.20;;;2.80;;
74371;SDS011;62885;51.374;6.170;2023-02-28T00:42:54;9.02;;;2.83;;
74371;SDS011;62885;51.374;6.170;2023-02-28T00:45:20;6.75;;;3.17;;
74371;SDS011;62885;51.374;6.170;2023-02-28T00:47:45;6.63;;;2.95;;
74371;SDS011;62885;51.374;6.170;2023-02-28T00:50:14;4.45;;;2.22;;
74371;SDS011;62885;51.374;6.170;2023-02-28T00:52:40;6.07;;;2.92;;
74371;SDS011;62885;51.374;6.170;2023-02-28T00:55:06;8.02;;;2.85;;
74371;SDS011;62885;51.374;6.170;2023-02-28T00:57:34;6.25;;;2.72;;
74371;SDS011;62885;51.374;6.170;2023-02-28T01:00:00;4.53;;;2.47;;
74371;SDS011;62885;51.374;6.170;2023-02-28T01:02:26;5.63;;;2.83;;
74371;SDS011;62885;51.374;6.170;2023-02-28T01:04:51;5.72;;;2.22;;
74371;SDS011;62885;51.374;6.170;2023-02-28T01:07:17;4.60;;;2.45;;
74371;SDS011;62885;51.374;6.170;2023-02-28T01:09:42;7.70;;;2.88;;
74371;SDS011;62885;51.374;6.170;2023-02-28T01:12:08;5.07;;;2.72;;
74371;SDS011;62885;51.374;6.170;2023-02-28T01:14:34;5.80;;;2.58;;
74371;SDS011;62885;51.374;6.170;2023-02-28T01:17:00;5.93;;;2.75;;
74371;SDS011;62885;51.374;6.170;2023-02-28T01:19:25;4.50;;;2.40;;
74371;SDS011;62885;51.374;6.170;2023-02-28T01:21:51;6.68;;;2.85;;
74371;SDS011;62885;51.374;6.170;2023-02-28T01:24:16;8.80;;;3.45;;
74371;SDS011;62885;51.374;6.170;2023-02-28T01:26:42;6.05;;;3.20;;
74371;SDS011;62885;51.374;6.170;2023-02-28T01:29:07;4.80;;;2.55;;
74371;SDS011;62885;51.374;6.170;2023-02-28T01:31:32;6.68;;;3.40;;
74371;SDS011;62885;51.374;6.170;2023-02-28T01:33:58;6.07;;;2.83;;
74371;SDS011;62885;51.374;6.170;2023-02-28T01:36:24;5.22;;;2.78;;
74371;SDS011;62885;51.374;6.170;2023-02-28T01:38:50;5.70;;;2.92;;
74371;SDS011;62885;51.374;6.170;2023-02-28T01:41:19;6.63;;;3.13;;
74371;SDS011;62885;51.374;6.170;2023-02-28T01:46:10;7.63;;;3.23;;
74371;SDS011;62885;51.374;6.170;2023-02-28T01:48:39;10.57;;;3.00;;
74371;SDS011;62885;51.374;6.170;2023-02-28T01:51:10;5.25;;;2.50;;
74371;SDS011;62885;51.374;6.170;2023-02-28T01:53:42;6.90;;;3.05;;
74371;SDS011;62885;51.374;6.170;2023-02-28T01:56:12;5.57;;;2.92;;
74371;SDS011;62885;51.374;6.170;2023-02-28T01:58:46;4.88;;;2.30;;
74371;SDS011;62885;51.374;6.170;2023-02-28T02:01:12;7.60;;;2.60;;
74371;SDS011;62885;51.374;6.170;2023-02-28T02:03:46;6.00;;;2.90;;
74371;SDS011;62885;51.374;6.170;2023-02-28T02:06:12;7.07;;;2.88;;
74371;SDS011;62885;51.374;6.170;2023-02-28T02:08:37;6.60;;;3.35;;
74371;SDS011;62885;51.374;6.170;2023-02-28T02:11:03;8.02;;;3.30;;
74371;SDS011;62885;51.374;6.170;2023-02-28T02:29:47;6.40;;;2.67;;
74371;SDS011;62885;51.374;6.170;2023-02-28T02:32:27;6.25;;;3.00;;
74371;SDS011;62885;51.374;6.170;2023-02-28T02:37:40;5.68;;;2.70;;
74371;SDS011;62885;51.374;6.170;2023-02-28T02:40:19;7.95;;;2.75;;
74371;SDS011;62885;51.374;6.170;2023-02-28T02:42:55;9.95;;;2.95;;
74371;SDS011;62885;51.374;6.170;2023-02-28T02:48:36;6.10;;;3.03;;
74371;SDS011;62885;51.374;6.170;2023-02-28T02:51:07;8.60;;;3.15;;
74371;SDS011;62885;51.374;6.170;2023-02-28T02:53:41;7.95;;;3.03;;
74371;SDS011;62885;51.374;6.170;2023-02-28T02:56:11;6.30;;;2.72;;
74371;SDS011;62885;51.374;6.170;2023-02-28T02:58:40;4.30;;;2.20;;
74371;SDS011;62885;51.374;6.170;2023-02-28T03:01:08;4.15;;;1.92;;
74371;SDS011;62885;51.374;6.170;2023-02-28T03:03:37;4.38;;;2.30;;
74371;SDS011;62885;51.374;6.170;2023-02-28T03:06:03;4.50;;;2.08;;
74371;SDS011;62885;51.374;6.170;2023-02-28T03:08:33;5.43;;;2.22;;
74371;SDS011;62885;51.374;6.170;2023-02-28T03:11:01;5.53;;;2.78;;
74371;SDS011;62885;51.374;6.170;2023-02-28T03:18:47;6.30;;;2.60;;
74371;SDS011;62885;51.374;6.170;2023-02-28T03:22:11;5.20;;;2.33;;
74371;SDS011;62885;51.374;6.170;2023-02-28T03:30:03;4.68;;;2.30;;
74371;SDS011;62885;51.374;6.170;2023-02-28T03:35:41;6.25;;;2.63;;
74371;SDS011;62885;51.374;6.170;2023-02-28T03:38:22;6.07;;;2.85;;
74371;SDS011;62885;51.374;6.170;2023-02-28T03:41:16;4.47;;;2.00;;
74371;SDS011;62885;51.374;6.170;2023-02-28T03:43:55;4.47;;;2.30;;
74371;SDS011;62885;51.374;6.170;2023-02-28T03:46:31;8.35;;;2.97;;
74371;SDS011;62885;51.374;6.170;2023-02-28T03:49:07;5.95;;;2.38;;
74371;SDS011;62885;51.374;6.170;2023-02-28T03:51:39;5.90;;;2.38;;
74371;SDS011;62885;51.374;6.170;2023-02-28T03:54:09;4.07;;;2.25;;
74371;SDS011;62885;51.374;6.170;2023-02-28T03:56:48;5.95;;;2.55;;
74371;SDS011;62885;51.374;6.170;2023-02-28T03:59:22;6.53;;;2.70;;
74371;SDS011;62885;51.374;6.170;2023-02-28T04:01:53;8.68;;;2.92;;
74371;SDS011;62885;51.374;6.170;2023-02-28T04:04:20;4.97;;;2.42;;
74371;SDS011;62885;51.374;6.170;2023-02-28T04:06:45;5.40;;;2.47;;
74371;SDS011;62885;51.374;6.170;2023-02-28T04:09:15;5.85;;;2.47;;
74371;SDS011;62885;51.374;6.170;2023-02-28T04:14:06;7.27;;;2.77;;
74371;SDS011;62885;51.374;6.170;2023-02-28T04:16:33;5.32;;;2.63;;
74371;SDS011;62885;51.374;6.170;2023-02-28T04:18:59;6.30;;;2.83;;
74371;SDS011;62885;51.374;6.170;2023-02-28T04:21:30;7.65;;;3.13;;
74371;SDS011;62885;51.374;6.170;2023-02-28T04:24:00;7.38;;;2.67;;
74371;SDS011;62885;51.374;6.170;2023-02-28T04:26:30;5.22;;;2.55;;
74371;SDS011;62885;51.374;6.170;2023-02-28T04:29:00;5.53;;;2.92;;
74371;SDS011;62885;51.374;6.170;2023-02-28T04:31:26;10.40;;;2.95;;
74371;SDS011;62885;51.374;6.170;2023-02-28T04:33:52;5.40;;;2.25;;
74371;SDS011;62885;51.374;6.170;2023-02-28T04:36:17;5.70;;;3.03;;
74371;SDS011;62885;51.374;6.170;2023-02-28T04:38:43;6.50;;;2.58;;
74371;SDS011;62885;51.374;6.170;2023-02-28T04:41:10;5.28;;;2.17;;
74371;SDS011;62885;51.374;6.170;2023-02-28T04:43:36;6.28;;;2.53;;
74371;SDS011;62885;51.374;6.170;2023-02-28T04:46:02;8.50;;;2.67;;
74371;SDS011;62885;51.374;6.170;2023-02-28T04:48:29;7.38;;;2.20;;
74371;SDS011;62885;51.374;6.170;2023-02-28T04:50:59;6.38;;;3.03;;
74371;SDS011;62885;51.374;6.170;2023-02-28T04:53:32;4.80;;;2.22;;
74371;SDS011;62885;51.374;6.170;2023-02-28T04:55:58;4.53;;;2.10;;
74371;SDS011;62885;51.374;6.170;2023-02-28T04:58:24;3.22;;;2.13;;
74371;SDS011;62885;51.374;6.170;2023-02-28T05:00:50;6.13;;;2.72;;
74371;SDS011;62885;51.374;6.170;2023-02-28T05:03:19;6.63;;;2.42;;
74371;SDS011;62885;51.374;6.170;2023-02-28T05:05:45;5.43;;;2.72;;
74371;SDS011;62885;51.374;6.170;2023-02-28T05:08:11;3.80;;;2.78;;
74371;SDS011;62885;51.374;6.170;2023-02-28T05:10:36;6.72;;;2.83;;
74371;SDS011;62885;51.374;6.170;2023-02-28T05:13:02;5.53;;;2.95;;
74371;SDS011;62885;51.374;6.170;2023-02-28T05:15:27;7.70;;;2.95;;
74371;SDS011;62885;51.374;6.170;2023-02-28T05:17:53;5.75;;;2.90;;
74371;SDS011;62885;51.374;6.170;2023-02-28T05:20:18;7.10;;;2.78;;
74371;SDS011;62885;51.374;6.170;2023-02-28T05:22:43;5.82;;;2.83;;
74371;SDS011;62885;51.374;6.170;2023-02-28T05:25:13;6.38;;;2.60;;
74371;SDS011;62885;51.374;6.170;2023-02-28T05:27:44;7.07;;;3.10;;
74371;SDS011;62885;51.374;6.170;2023-02-28T05:30:09;8.15;;;2.60;;
74371;SDS011;62885;51.374;6.170;2023-02-28T05:32:36;5.20;;;2.45;;
74371;SDS011;62885;51.374;6.170;2023-02-28T05:35:03;6.05;;;3.00;;
74371;SDS011;62885;51.374;6.170;2023-02-28T05:37:28;4.82;;;2.25;;
74371;SDS011;62885;51.374;6.170;2023-02-28T05:39:54;7.18;;;3.15;;
74371;SDS011;62885;51.374;6.170;2023-02-28T05:42:19;7.25;;;2.65;;
74371;SDS011;62885;51.374;6.170;2023-02-28T05:44:44;5.30;;;2.38;;
74371;SDS011;62885;51.374;6.170;2023-02-28T05:47:10;5.85;;;2.55;;
74371;SDS011;62885;51.374;6.170;2023-02-28T05:49:37;4.10;;;2.25;;
74371;SDS011;62885;51.374;6.170;2023-02-28T05:52:03;4.57;;;1.98;;
74371;SDS011;62885;51.374;6.170;2023-02-28T05:54:28;5.57;;;2.30;;
74371;SDS011;62885;51.374;6.170;2023-02-28T05:56:53;3.70;;;2.00;;
74371;SDS011;62885;51.374;6.170;2023-02-28T05:59:19;7.95;;;3.13;;
74371;SDS011;62885;51.374;6.170;2023-02-28T06:01:45;4.70;;;2.63;;
74371;SDS011;62885;51.374;6.170;2023-02-28T06:04:14;7.00;;;2.78;;
74371;SDS011;62885;51.374;6.170;2023-02-28T06:06:44;4.80;;;2.60;;
74371;SDS011;62885;51.374;6.170;2023-02-28T06:09:10;6.80;;;2.85;;
74371;SDS011;62885;51.374;6.170;2023-02-28T06:11:36;6.47;;;2.83;;
74371;SDS011;62885;51.374;6.170;2023-02-28T06:14:02;4.47;;;2.15;;
74371;SDS011;62885;51.374;6.170;2023-02-28T06:16:30;8.90;;;3.15;;
74371;SDS011;62885;51.374;6.170;2023-02-28T06:18:57;5.93;;;2.72;;
74371;SDS011;62885;51.374;6.170;2023-02-28T06:21:23;4.43;;;2.65;;
74371;SDS011;62885;51.374;6.170;2023-02-28T06:23:49;7.45;;;3.00;;
74371;SDS011;62885;51.374;6.170;2023-02-28T06:26:15;4.93;;;2.65;;
74371;SDS011;62885;51.374;6.170;2023-02-28T06:28:40;6.00;;;2.75;;
74371;SDS011;62885;51.374;6.170;2023-02-28T06:31:07;6.15;;;3.13;;
74371;SDS011;62885;51.374;6.170;2023-02-28T06:33:37;5.65;;;2.35;;
74371;SDS011;62885;51.374;6.170;2023-02-28T06:36:03;3.58;;;1.77;;
74371;SDS011;62885;51.374;6.170;2023-02-28T06:38:30;5.43;;;2.60;;
74371;SDS011;62885;51.374;6.170;2023-02-28T06:40:57;7.97;;;2.83;;
74371;SDS011;62885;51.374;6.170;2023-02-28T06:43:24;5.10;;;2.53;;
74371;SDS011;62885;51.374;6.170;2023-02-28T06:45:50;7.75;;;2.75;;
74371;SDS011;62885;51.374;6.170;2023-02-28T06:48:15;5.07;;;2.08;;
74371;SDS011;62885;51.374;6.170;2023-02-28T06:50:41;3.75;;;2.05;;
74371;SDS011;62885;51.374;6.170;2023-02-28T06:53:07;5.57;;;2.35;;
74371;SDS011;62885;51.374;6.170;2023-02-28T06:55:32;6.43;;;2.33;;
74371;SDS011;62885;51.374;6.170;2023-02-28T06:57:58;8.48;;;2.95;;
74371;SDS011;62885;51.374;6.170;2023-02-28T07:00:23;6.18;;;1.98;;
74371;SDS011;62885;51.374;6.170;2023-02-28T07:02:50;5.30;;;2.45;;
74371;SDS011;62885;51.374;6.170;2023-02-28T07:05:15;5.65;;;2.20;;
74371;SDS011;62885;51.374;6.170;2023-02-28T07:07:41;4.78;;;2.08;;
74371;SDS011;62885;51.374;6.170;2023-02-28T07:10:10;4.75;;;2.53;;
74371;SDS011;62885;51.374;6.170;2023-02-28T07:12:36;6.00;;;2.28;;
74371;SDS011;62885;51.374;6.170;2023-02-28T07:15:02;5.15;;;2.33;;
74371;SDS011;62885;51.374;6.170;2023-02-28T07:17:29;6.15;;;2.80;;
74371;SDS011;62885;51.374;6.170;2023-02-28T07:19:54;4.93;;;2.30;;
74371;SDS011;62885;51.374;6.170;2023-02-28T07:22:20;7.38;;;2.63;;
74371;SDS011;62885;51.374;6.170;2023-02-28T07:24:45;6.00;;;2.38;;
74371;SDS011;62885;51.374;6.170;2023-02-28T07:27:10;6.90;;;2.78;;
74371;SDS011;62885;51.374;6.170;2023-02-28T07:29:36;10.05;;;2.45;;
74371;SDS011;62885;51.374;6.170;2023-02-28T07:32:02;3.53;;;1.23;;
74371;SDS011;62885;51.374;6.170;2023-02-28T07:34:27;3.83;;;1.75;;
74371;SDS011;62885;51.374;6.170;2023-02-28T07:36:53;3.00;;;1.85;;
74371;SDS011;62885;51.374;6.170;2023-02-28T07:39:19;2.60;;;1.50;;
74371;SDS011;62885;51.374;6.170;2023-02-28T07:41:45;4.32;;;2.00;;
74371;SDS011;62885;51.374;6.170;2023-02-28T07:44:11;7.00;;;2.28;;
74371;SDS011;62885;51.374;6.170;2023-02-28T07:46:36;2.85;;;1.48;;
74371;SDS011;62885;51.374;6.170;2023-02-28T07:49:02;4.47;;;1.30;;
74371;SDS011;62885;51.374;6.170;2023-02-28T07:51:28;5.50;;;1.90;;
74371;SDS011;62885;51.374;6.170;2023-02-28T07:53:54;3.70;;;1.33;;
74371;SDS011;62885;51.374;6.170;2023-02-28T07:56:20;5.80;;;1.73;;
74371;SDS011;62885;51.374;6.170;2023-02-28T07:58:45;4.72;;;1.88;;
74371;SDS011;62885;51.374;6.170;2023-02-28T08:01:11;3.92;;;1.65;;
74371;SDS011;62885;51.374;6.170;2023-02-28T08:03:38;2.97;;;1.50;;
74371;SDS011;62885;51.374;6.170;2023-02-28T08:06:04;3.72;;;1.85;;
74371;SDS011;62885;51.374;6.170;2023-02-28T08:08:31;4.35;;;1.92;;
74371;SDS011;62885;51.374;6.170;2023-02-28T08:11:03;4.82;;;1.88;;
74371;SDS011;62885;51.374;6.170;2023-02-28T08:13:28;3.55;;;1.33;;
74371;SDS011;62885;51.374;6.170;2023-02-28T08:15:55;6.15;;;1.88;;
74371;SDS011;62885;51.374;6.170;2023-02-28T08:18:21;4.13;;;2.17;;
74371;SDS011;62885;51.374;6.170;2023-02-28T08:20:47;2.30;;;1.45;;
74371;SDS011;62885;51.374;6.170;2023-02-28T08:23:12;4.00;;;1.83;;
74371;SDS011;62885;51.374;6.170;2023-02-28T08:25:38;3.33;;;1.38;;
74371;SDS011;62885;51.374;6.170;2023-02-28T08:28:03;2.05;;;1.27;;
74371;SDS011;62885;51.374;6.170;2023-02-28T08:30:28;1.42;;;0.80;;
74371;SDS011;62885;51.374;6.170;2023-02-28T08:32:54;2.58;;;1.38;;
74371;SDS011;62885;51.374;6.170;2023-02-28T08:35:20;3.30;;;1.63;;
74371;SDS011;62885;51.374;6.170;2023-02-28T08:37:47;2.97;;;1.33;;
74371;SDS011;62885;51.374;6.170;2023-02-28T08:40:13;3.05;;;1.77;;
74371;SDS011;62885;51.374;6.170;2023-02-28T08:42:43;4.25;;;2.10;;
74371;SDS011;62885;51.374;6.170;2023-02-28T08:45:11;3.22;;;1.40;;
74371;SDS011;62885;51.374;6.170;2023-02-28T08:47:37;3.47;;;1.75;;
74371;SDS011;62885;51.374;6.170;2023-02-28T08:50:03;3.08;;;1.50;;
74371;SDS011;62885;51.374;6.170;2023-02-28T08:52:32;2.67;;;1.25;;
74371;SDS011;62885;51.374;6.170;2023-02-28T08:54:58;3.72;;;1.70;;
74371;SDS011;62885;51.374;6.170;2023-02-28T08:57:23;3.30;;;1.50;;
74371;SDS011;62885;51.374;6.170;2023-02-28T08:59:51;4.80;;;1.90;;
74371;SDS011;62885;51.374;6.170;2023-02-28T09:02:16;3.58;;;1.30;;
74371;SDS011;62885;51.374;6.170;2023-02-28T09:04:42;2.83;;;1.10;;
74371;SDS011;62885;51.374;6.170;2023-02-28T09:07:10;1.98;;;1.33;;
74371;SDS011;62885;51.374;6.170;2023-02-28T09:09:35;2.17;;;1.30;;
74371;SDS011;62885;51.374;6.170;2023-02-28T09:12:01;2.55;;;1.52;;
74371;SDS011;62885;51.374;6.170;2023-02-28T09:14:27;4.28;;;1.98;;
74371;SDS011;62885;51.374;6.170;2023-02-28T09:16:52;1.73;;;0.93;;
74371;SDS011;62885;51.374;6.170;2023-02-28T09:19:17;6.15;;;1.63;;
74371;SDS011;62885;51.374;6.170;2023-02-28T09:21:43;3.00;;;1.42;;
74371;SDS011;62885;51.374;6.170;2023-02-28T09:24:08;1.60;;;1.05;;
74371;SDS011;62885;51.374;6.170;2023-02-28T09:26:33;4.55;;;1.67;;
74371;SDS011;62885;51.374;6.170;2023-02-28T09:28:59;3.00;;;1.67;;
74371;SDS011;62885;51.374;6.170;2023-02-28T09:31:25;5.03;;;1.80;;
74371;SDS011;62885;51.374;6.170;2023-02-28T09:33:53;6.07;;;1.95;;
74371;SDS011;62885;51.374;6.170;2023-02-28T09:36:20;2.53;;;1.15;;
74371;SDS011;62885;51.374;6.170;2023-02-28T09:38:47;4.03;;;1.40;;
74371;SDS011;62885;51.374;6.170;2023-02-28T09:41:15;4.00;;;1.38;;
74371;SDS011;62885;51.374;6.170;2023-02-28T09:43:45;3.25;;;1.60;;
74371;SDS011;62885;51.374;6.170;2023-02-28T09:46:25;3.85;;;1.73;;
74371;SDS011;62885;51.374;6.170;2023-02-28T09:48:52;2.80;;;1.70;;
74371;SDS011;62885;51.374;6.170;2023-02-28T09:53:58;3.55;;;1.83;;
74371;SDS011;62885;51.374;6.170;2023-02-28T09:56:36;3.40;;;1.45;;
74371;SDS011;62885;51.374;6.170;2023-02-28T10:01:49;1.70;;;0.68;;
74371;SDS011;62885;51.374;6.170;2023-02-28T10:06:47;0.90;;;0.90;;
74371;SDS011;62885;51.374;6.170;2023-02-28T10:11:47;1.95;;;0.82;;
74371;SDS011;62885;51.374;6.170;2023-02-28T10:14:24;3.63;;;1.00;;
74371;SDS011;62885;51.374;6.170;2023-02-28T10:19:40;2.55;;;1.25;;
74371;SDS011;62885;51.374;6.170;2023-02-28T10:22:16;2.17;;;1.23;;
74371;SDS011;62885;51.374;6.170;2023-02-28T10:24:46;3.28;;;1.30;;
74371;SDS011;62885;51.374;6.170;2023-02-28T10:27:16;3.22;;;1.55;;
74371;SDS011;62885;51.374;6.170;2023-02-28T10:29:49;4.53;;;1.67;;
74371;SDS011;62885;51.374;6.170;2023-02-28T10:32:18;5.45;;;2.08;;
74371;SDS011;62885;51.374;6.170;2023-02-28T10:34:56;1.65;;;0.82;;
74371;SDS011;62885;51.374;6.170;2023-02-28T10:37:25;2.55;;;1.08;;
74371;SDS011;62885;51.374;6.170;2023-02-28T10:39:52;2.85;;;1.17;;
74371;SDS011;62885;51.374;6.170;2023-02-28T10:42:27;1.15;;;0.90;;
74371;SDS011;62885;51.374;6.170;2023-02-28T10:45:09;1.50;;;0.70;;
74371;SDS011;62885;51.374;6.170;2023-02-28T10:47:58;1.45;;;0.63;;
74371;SDS011;62885;51.374;6.170;2023-02-28T10:50:33;2.28;;;0.90;;
74371;SDS011;62885;51.374;6.170;2023-02-28T10:53:50;2.55;;;0.85;;
74371;SDS011;62885;51.374;6.170;2023-02-28T10:55:56;2.45;;;1.20;;
74371;SDS011;62885;51.374;6.170;2023-02-28T10:58:24;2.22;;;1.10;;
74371;SDS011;62885;51.374;6.170;2023-02-28T11:00:52;3.13;;;1.48;;
74371;SDS011;62885;51.374;6.170;2023-02-28T11:03:23;1.63;;;1.08;;
74371;SDS011;62885;51.374;6.170;2023-02-28T11:05:50;2.85;;;1.10;;
74371;SDS011;62885;51.374;6.170;2023-02-28T11:08:16;2.17;;;1.02;;
74371;SDS011;62885;51.374;6.170;2023-02-28T11:10:56;1.08;;;0.65;;
74371;SDS011;62885;51.374;6.170;2023-02-28T11:13:32;1.08;;;0.90;;
74371;SDS011;62885;51.374;6.170;2023-02-28T11:16:01;1.92;;;1.10;;
74371;SDS011;62885;51.374;6.170;2023-02-28T11:21:07;3.63;;;1.17;;
74371;SDS011;62885;51.374;6.170;2023-02-28T11:23:34;3.40;;;1.27;;
74371;SDS011;62885;51.374;6.170;2023-02-28T11:26:02;3.67;;;1.30;;
74371;SDS011;62885;51.374;6.170;2023-02-28T11:38:49;2.50;;;1.17;;
74371;SDS011;62885;51.374;6.170;2023-02-28T11:41:18;3.28;;;1.30;;
74371;SDS011;62885;51.374;6.170;2023-02-28T11:46:58;3.05;;;1.30;;
74371;SDS011;62885;51.374;6.170;2023-02-28T11:49:34;1.95;;;1.20;;
74371;SDS011;62885;51.374;6.170;2023-02-28T11:54:56;1.52;;;0.93;;
74371;SDS011;62885;51.374;6.170;2023-02-28T12:00:54;2.22;;;0.88;;
74371;SDS011;62885;51.374;6.170;2023-02-28T12:08:43;2.27;;;1.03;;
74371;SDS011;62885;51.374;6.170;2023-02-28T12:11:29;2.70;;;1.25;;
74371;SDS011;62885;51.374;6.170;2023-02-28T12:28:20;2.47;;;1.15;;
74371;SDS011;62885;51.374;6.170;2023-02-28T12:30:58;2.28;;;1.23;;
74371;SDS011;62885;51.374;6.170;2023-02-28T12:33:34;2.92;;;1.58;;
74371;SDS011;62885;51.374;6.170;2023-02-28T12:36:14;2.22;;;1.38;;
74371;SDS011;62885;51.374;6.170;2023-02-28T12:38:45;5.32;;;2.05;;
74371;SDS011;62885;51.374;6.170;2023-02-28T12:41:18;2.15;;;1.27;;
74371;SDS011;62885;51.374;6.170;2023-02-28T12:43:50;2.67;;;1.38;;
74371;SDS011;62885;51.374;6.170;2023-02-28T12:46:23;3.22;;;1.50;;
74371;SDS011;62885;51.374;6.170;2023-02-28T12:48:57;4.35;;;1.20;;
74371;SDS011;62885;51.374;6.170;2023-02-28T12:51:25;2.80;;;1.45;;
74371;SDS011;62885;51.374;6.170;2023-02-28T12:56:42;1.60;;;1.00;;
74371;SDS011;62885;51.374;6.170;2023-02-28T13:02:08;5.05;;;1.60;;
74371;SDS011;62885;51.374;6.170;2023-02-28T13:09:56;12.00;;;1.48;;
74371;SDS011;62885;51.374;6.170;2023-02-28T13:12:24;2.63;;;1.48;;
74371;SDS011;62885;51.374;6.170;2023-02-28T13:14:51;2.60;;;1.38;;
74371;SDS011;62885;51.374;6.170;2023-02-28T13:17:37;2.20;;;1.10;;
74371;SDS011;62885;51.374;6.170;2023-02-28T13:20:14;2.65;;;1.35;;
74371;SDS011;62885;51.374;6.170;2023-02-28T13:22:43;4.15;;;1.67;;
74371;SDS011;62885;51.374;6.170;2023-02-28T13:27:48;2.33;;;1.27;;
74371;SDS011;62885;51.374;6.170;2023-02-28T13:46:34;3.75;;;1.90;;
74371;SDS011;62885;51.374;6.170;2023-02-28T13:51:55;3.72;;;1.65;;
74371;SDS011;62885;51.374;6.170;2023-02-28T14:03:32;3.45;;;1.50;;
74371;SDS011;62885;51.374;6.170;2023-02-28T14:06:30;2.40;;;1.02;;
74371;SDS011;62885;51.374;6.170;2023-02-28T14:09:18;3.70;;;1.67;;
74371;SDS011;62885;51.374;6.170;2023-02-28T14:11:53;2.33;;;1.13;;
74371;SDS011;62885;51.374;6.170;2023-02-28T14:17:03;5.55;;;1.35;;
74371;SDS011;62885;51.374;6.170;2023-02-28T14:19:30;2.55;;;1.63;;
74371;SDS011;62885;51.374;6.170;2023-02-28T14:35:18;4.75;;;2.03;;
74371;SDS011;62885;51.374;6.170;2023-02-28T14:37:54;3.17;;;1.50;;
74371;SDS011;62885;51.374;6.170;2023-02-28T14:40:23;5.00;;;2.30;;
74371;SDS011;62885;51.374;6.170;2023-02-28T14:42:59;3.33;;;1.52;;
74371;SDS011;62885;51.374;6.170;2023-02-28T14:47:55;2.60;;;1.80;;
74371;SDS011;62885;51.374;6.170;2023-02-28T14:50:32;3.45;;;1.88;;
74371;SDS011;62885;51.374;6.170;2023-02-28T14:53:01;4.28;;;1.98;;
74371;SDS011;62885;51.374;6.170;2023-02-28T14:55:30;3.00;;;1.48;;
74371;SDS011;62885;51.374;6.170;2023-02-28T14:58:03;4.15;;;2.00;;
74371;SDS011;62885;51.374;6.170;2023-02-28T15:00:47;3.10;;;1.60;;
74371;SDS011;62885;51.374;6.170;2023-02-28T15:03:27;2.47;;;1.42;;
74371;SDS011;62885;51.374;6.170;2023-02-28T15:06:02;4.95;;;2.22;;
74371;SDS011;62885;51.374;6.170;2023-02-28T15:09:01;4.18;;;1.95;;
74371;SDS011;62885;51.374;6.170;2023-02-28T15:11:33;3.10;;;1.98;;
74371;SDS011;62885;51.374;6.170;2023-02-28T15:13:58;2.63;;;1.60;;
74371;SDS011;62885;51.374;6.170;2023-02-28T15:16:28;4.22;;;2.10;;
74371;SDS011;62885;51.374;6.170;2023-02-28T15:21:27;3.80;;;2.15;;
74371;SDS011;62885;51.374;6.170;2023-02-28T15:23:54;5.40;;;2.17;;
74371;SDS011;62885;51.374;6.170;2023-02-28T15:26:25;3.25;;;1.75;;
74371;SDS011;62885;51.374;6.170;2023-02-28T15:29:02;4.22;;;2.13;;
74371;SDS011;62885;51.374;6.170;2023-02-28T15:34:04;3.75;;;2.05;;
74371;SDS011;62885;51.374;6.170;2023-02-28T15:36:31;3.70;;;1.92;;
74371;SDS011;62885;51.374;6.170;2023-02-28T15:39:02;4.00;;;2.03;;
74371;SDS011;62885;51.374;6.170;2023-02-28T15:41:42;7.05;;;2.28;;
74371;SDS011;62885;51.374;6.170;2023-02-28T15:44:16;8.88;;;3.10;;
74371;SDS011;62885;51.374;6.170;2023-02-28T15:46:55;4.63;;;2.28;;
74371;SDS011;62885;51.374;6.170;2023-02-28T15:49:24;2.90;;;1.88;;
74371;SDS011;62885;51.374;6.170;2023-02-28T15:51:51;4.50;;;2.20;;
74371;SDS011;62885;51.374;6.170;2023-02-28T15:54:20;3.83;;;2.03;;
74371;SDS011;62885;51.374;6.170;2023-02-28T15:56:52;3.92;;;2.10;;
74371;SDS011;62885;51.374;6.170;2023-02-28T15:59:24;7.85;;;2.30;;
74371;SDS011;62885;51.374;6.170;2023-02-28T16:02:11;3.88;;;1.95;;
74371;SDS011;62885;51.374;6.170;2023-02-28T16:07:23;4.60;;;2.35;;
74371;SDS011;62885;51.374;6.170;2023-02-28T16:09:49;5.18;;;1.95;;
74371;SDS011;62885;51.374;6.170;2023-02-28T16:12:15;4.45;;;1.83;;
74371;SDS011;62885;51.374;6.170;2023-02-28T16:14:41;3.50;;;2.28;;
74371;SDS011;62885;51.374;6.170;2023-02-28T16:17:11;6.60;;;1.98;;
74371;SDS011;62885;51.374;6.170;2023-02-28T16:19:44;4.55;;;2.00;;
74371;SDS011;62885;51.374;6.170;2023-02-28T16:22:10;3.55;;;1.80;;
74371;SDS011;62885;51.374;6.170;2023-02-28T16:24:35;5.18;;;2.50;;
74371;SDS011;62885;51.374;6.170;2023-02-28T16:27:01;3.05;;;1.88;;
74371;SDS011;62885;51.374;6.170;2023-02-28T16:29:28;3.95;;;1.75;;
74371;SDS011;62885;51.374;6.170;2023-02-28T16:31:56;4.78;;;2.15;;
74371;SDS011;62885;51.374;6.170;2023-02-28T16:34:22;4.32;;;2.10;;
74371;SDS011;62885;51.374;6.170;2023-02-28T16:36:48;3.53;;;1.90;;
74371;SDS011;62885;51.374;6.170;2023-02-28T16:39:14;2.83;;;1.83;;
74371;SDS011;62885;51.374;6.170;2023-02-28T16:41:43;3.20;;;1.48;;
74371;SDS011;62885;51.374;6.170;2023-02-28T16:44:11;6.97;;;2.17;;
74371;SDS011;62885;51.374;6.170;2023-02-28T16:46:42;4.20;;;2.30;;
74371;SDS011;62885;51.374;6.170;2023-02-28T16:49:10;4.75;;;2.15;;
74371;SDS011;62885;51.374;6.170;2023-02-28T16:51:37;7.03;;;2.47;;
74371;SDS011;62885;51.374;6.170;2023-02-28T16:54:02;3.63;;;2.10;;
74371;SDS011;62885;51.374;6.170;2023-02-28T16:56:28;6.03;;;2.70;;
74371;SDS011;62885;51.374;6.170;2023-02-28T16:58:54;4.18;;;2.40;;
74371;SDS011;62885;51.374;6.170;2023-02-28T17:01:22;4.88;;;2.60;;
74371;SDS011;62885;51.374;6.170;2023-02-28T17:03:48;7.90;;;3.47;;
74371;SDS011;62885;51.374;6.170;2023-02-28T17:06:19;5.18;;;2.53;;
74371;SDS011;62885;51.374;6.170;2023-02-28T17:08:48;5.97;;;2.92;;
74371;SDS011;62885;51.374;6.170;2023-02-28T17:11:14;4.47;;;2.53;;
74371;SDS011;62885;51.374;6.170;2023-02-28T17:13:40;4.97;;;2.10;;
74371;SDS011;62885;51.374;6.170;2023-02-28T17:16:05;5.03;;;2.40;;
74371;SDS011;62885;51.374;6.170;2023-02-28T17:18:34;4.28;;;2.35;;
74371;SDS011;62885;51.374;6.170;2023-02-28T17:21:00;7.05;;;2.90;;
74371;SDS011;62885;51.374;6.170;2023-02-28T17:23:26;5.35;;;2.47;;
74371;SDS011;62885;51.374;6.170;2023-02-28T17:25:51;5.18;;;2.47;;
74371;SDS011;62885;51.374;6.170;2023-02-28T17:28:22;3.67;;;1.95;;
74371;SDS011;62885;51.374;6.170;2023-02-28T17:30:49;5.85;;;1.95;;
74371;SDS011;62885;51.374;6.170;2023-02-28T17:33:15;5.22;;;2.38;;
74371;SDS011;62885;51.374;6.170;2023-02-28T17:35:40;4.50;;;2.03;;
74371;SDS011;62885;51.374;6.170;2023-02-28T17:38:12;5.75;;;2.22;;
74371;SDS011;62885;51.374;6.170;2023-02-28T17:40:41;4.35;;;2.42;;
74371;SDS011;62885;51.374;6.170;2023-02-28T17:43:06;5.35;;;2.03;;